Fernando Pessoa — CSKQ — position and weather

sailwx.info

Track history (hours):
 
Tides and Currents Weather Stations Pressure Air Temp Water Temp Dewpoint Dewpoint Depression Visibility Wind Speed Wind Dir Waves Ship Positions

Fernando Pessoa

Last reported at 2015-Mar-28 17:33 UTC. Time now 2015-Mar-28 17:51 UTC.
Position N 38°40' W 009°06'.

Length 49 m.

MMSI: 263701470.

Date/timePositionNaut miles runAvg speedWind from/ knotsBaromVisibWave heightAir tempDewpointWater temp
2015-Mar-28 17:33N 38°40' W 009°06'0 0.5
2015-Mar-28 16:33N 38°40' W 009°07'1 0.5
2015-Mar-28 15:33N 38°40' W 009°06'0 0.0
2015-Mar-28 14:33N 38°40' W 009°06'0 0.0
2015-Mar-28 13:33N 38°40' W 009°06'1 1.2
2015-Mar-28 12:33N 38°39' W 009°05'0 0.0
2015-Mar-28 11:34N 38°39' W 009°05'3 3.0
2015-Mar-28 10:33N 38°41' W 009°08'0 0.3
2015-Mar-28 09:33N 38°41' W 009°08'0 0.1
2015-Mar-28 08:33N 38°41' W 009°08'3 3.0
2015-Mar-28 07:34N 38°39' W 009°05'1 0.7
2015-Mar-28 06:34N 38°39' W 009°06'1 0.6
2015-Mar-28 05:33N 38°39' W 009°05'0 0.0
2015-Mar-28 04:33N 38°39' W 009°05'0 0.0
2015-Mar-28 03:33N 38°39' W 009°05'0 0.0
2015-Mar-28 02:33N 38°39' W 009°05'0 0.0
2015-Mar-28 01:33N 38°39' W 009°05'0 0.0
2015-Mar-28 00:33N 38°39' W 009°05'4 3.9
2015-Mar-27 23:33N 38°42' W 009°08'1 1.4
2015-Mar-27 22:33N 38°41' W 009°07'0 0.3
2015-Mar-27 21:34N 38°41' W 009°08'3 2.7
2015-Mar-27 20:33N 38°39' W 009°05'0 0.0
2015-Mar-27 19:33N 38°39' W 009°05'0 0.0
2015-Mar-27 18:33N 38°39' W 009°05'1 0.9
2015-Mar-27 17:34N 38°39' W 009°06'1 0.8
2015-Mar-27 16:33N 38°39' W 009°05'0 0.0
2015-Mar-27 10:17N 38°39' W 009°05'4 5.5
2015-Mar-27 09:33N 38°42' W 009°08'0 0.0
2015-Mar-27 08:33N 38°42' W 009°08'2 2.3
2015-Mar-27 07:34N 38°40' W 009°07'2 0.2
2015-Mar-26 22:05N 38°39' W 009°05'0 0.0
2015-Mar-26 21:33N 38°39' W 009°05'0 0.0
2015-Mar-26 20:33N 38°39' W 009°05'4 3.6
2015-Mar-26 19:34N 38°42' W 009°08'1 0.6
2015-Mar-26 18:33N 38°42' W 009°08'3 2.6
2015-Mar-26 17:33N 38°40' W 009°07'1 1.5
2015-Mar-26 16:33N 38°39' W 009°05'1 0.7
2015-Mar-26 15:33N 38°40' W 009°06'1 1.1
2015-Mar-26 14:32N 38°39' W 009°05'0 0.0
2015-Mar-26 13:33N 38°39' W 009°05'0 0.0
2015-Mar-26 12:33N 38°39' W 009°05'0 0.0
2015-Mar-26 11:33N 38°39' W 009°05'2 1.6
2015-Mar-26 10:33N 38°40' W 009°07'0 0.3
2015-Mar-26 09:33N 38°40' W 009°06'1 0.7
2015-Mar-26 08:34N 38°40' W 009°07'2 2.0
2015-Mar-26 07:33N 38°39' W 009°05'0 0.0
2015-Mar-26 06:33N 38°39' W 009°05'0 0.0
2015-Mar-26 05:33N 38°39' W 009°05'0 0.0
2015-Mar-26 04:34N 38°39' W 009°05'0 0.0
2015-Mar-26 03:34N 38°39' W 009°05'0 0.0
2015-Mar-26 02:34N 38°39' W 009°05'0 0.0
2015-Mar-26 01:34N 38°39' W 009°05'0 0.0
2015-Mar-26 00:34N 38°39' W 009°05'4 3.8
2015-Mar-25 23:33N 38°42' W 009°08'1 1.1
2015-Mar-25 22:34N 38°41' W 009°08'0 0.3
2015-Mar-25 21:33N 38°41' W 009°08'3 2.8
2015-Mar-25 20:33N 38°39' W 009°05'0 0.5
2015-Mar-25 19:33N 38°39' W 009°05'1 0.5
2015-Mar-25 18:33N 38°39' W 009°05'1 1.1
2015-Mar-25 17:33N 38°40' W 009°06'1 1.0
2015-Mar-25 16:32N 38°39' W 009°05'0 0.0
2015-Mar-25 11:12N 38°39' W 009°05'0 0.1
2015-Mar-25 10:33N 38°39' W 009°05'0 0.1
2015-Mar-25 09:33N 38°39' W 009°05'0 0.4
2015-Mar-25 08:34N 38°39' W 009°05'0 0.4
2015-Mar-25 07:33N 38°39' W 009°05'0 0.0
2015-Mar-25 06:33N 38°39' W 009°05'0 0.0
2015-Mar-25 05:33N 38°39' W 009°05'0 0.0
2015-Mar-25 04:33N 38°39' W 009°05'0 0.0
2015-Mar-25 03:33N 38°39' W 009°05'0 0.0
2015-Mar-25 02:33N 38°39' W 009°05'0 0.0
2015-Mar-25 01:33N 38°39' W 009°05'0 0.0
2015-Mar-25 00:33N 38°39' W 009°05'0 0.0
2015-Mar-24 23:33N 38°39' W 009°05'0 0.0
2015-Mar-24 22:33N 38°39' W 009°05'0 0.0
2015-Mar-24 21:33N 38°39' W 009°05'3 2.6
2015-Mar-24 20:33N 38°41' W 009°07'2 1.7
2015-Mar-24 19:34N 38°39' W 009°06'3 3.1
2015-Mar-24 18:33N 38°42' W 009°08'0 0.2
2015-Mar-24 17:33N 38°42' W 009°08'2 2.0
2015-Mar-24 16:33N 38°40' W 009°07'2 2.4
2015-Mar-24 15:33N 38°39' W 009°05'1 1.2
2015-Mar-24 14:33N 38°40' W 009°06'0 0.0
2015-Mar-24 13:33N 38°40' W 009°06'1 1.0
2015-Mar-24 12:33N 38°39' W 009°05'0 0.0
2015-Mar-24 11:33N 38°39' W 009°05'3 2.7
2015-Mar-24 10:33N 38°41' W 009°08'3 2.8
2015-Mar-24 09:33N 38°39' W 009°05'2 1.8
2015-Mar-24 08:33N 38°40' W 009°07'3 2.5
2015-Mar-24 07:34N 38°42' W 009°08'0 0.2
2015-Mar-24 06:33N 38°42' W 009°08'0 0.3
2015-Mar-24 05:33N 38°42' W 009°08'4 3.9
2015-Mar-24 04:33N 38°39' W 009°05'0 0.0
2015-Mar-24 03:33N 38°39' W 009°05'0 0.0
2015-Mar-24 02:33N 38°39' W 009°05'0 0.4
2015-Mar-24 01:33N 38°39' W 009°05'0 0.0
2015-Mar-24 00:33N 38°39' W 009°05'0 0.0
2015-Mar-23 23:34N 38°39' W 009°05'1 1.4
2015-Mar-23 22:33N 38°40' W 009°07'0 0.1
2015-Mar-23 21:33N 38°40' W 009°07'2 1.7
2015-Mar-23 20:32N 38°39' W 009°05'0 0.0
2015-Mar-23 19:33N 38°39' W 009°05'1 1.2
2015-Mar-23 18:34N 38°40' W 009°06'3 2.8
2015-Mar-23 17:33N 38°42' W 009°08'4 3.7
2015-Mar-23 16:33N 38°39' W 009°05'0 0.0
2015-Mar-23 12:33N 38°39' W 009°05'0 0.0
2015-Mar-23 11:33N 38°39' W 009°05'0 0.0
2015-Mar-23 10:33N 38°39' W 009°05'4 4.0
2015-Mar-23 09:33N 38°42' W 009°08'0 0.0
2015-Mar-23 08:34N 38°42' W 009°08'2 2.4
2015-Mar-23 07:33N 38°40' W 009°07'  
2015-Mar-20 20:11N 38°39' W 009°05'4 6.3
2015-Mar-20 19:33N 38°42' W 009°08'0 0.1
2015-Mar-20 18:33N 38°42' W 009°08'2 2.5
2015-Mar-20 17:33N 38°40' W 009°07'2 1.7
2015-Mar-20 16:33N 38°39' W 009°05'1 1.0
2015-Mar-20 15:33N 38°40' W 009°06'1 1.3
2015-Mar-20 14:33N 38°39' W 009°05'0 0.0
2015-Mar-20 13:33N 38°39' W 009°05'0 0.0
2015-Mar-20 12:34N 38°39' W 009°05'0 0.0
2015-Mar-20 11:32N 38°39' W 009°05'0 0.0
2015-Mar-20 10:33N 38°39' W 009°05'1 1.5
2015-Mar-20 09:34N 38°40' W 009°06'1 0.6
2015-Mar-20 08:33N 38°40' W 009°07'2 2.0
2015-Mar-20 07:34N 38°39' W 009°05'0 0.0
2015-Mar-20 06:34N 38°39' W 009°05'0 0.0
2015-Mar-20 05:33N 38°39' W 009°05'0 0.0
2015-Mar-20 04:33N 38°39' W 009°05'0 0.0
2015-Mar-20 03:33N 38°39' W 009°05'0 0.0
2015-Mar-20 02:34N 38°39' W 009°05'0 0.0
2015-Mar-20 01:33N 38°39' W 009°05'0 0.0
2015-Mar-20 00:33N 38°39' W 009°05'4 3.8
2015-Mar-19 23:34N 38°42' W 009°08'1 0.9
2015-Mar-19 22:33N 38°41' W 009°08'0 0.1
2015-Mar-19 21:33N 38°41' W 009°08'3 3.0
2015-Mar-19 20:33N 38°39' W 009°05'0 0.4
2015-Mar-19 19:33N 38°39' W 009°05'0 0.3
2015-Mar-19 18:33N 38°39' W 009°05'2 1.7
2015-Mar-19 17:33N 38°40' W 009°07'2 1.6
2015-Mar-19 16:33N 38°39' W 009°05'0 0.0
2015-Mar-19 09:33N 38°39' W 009°05'0 0.4
2015-Mar-19 08:33N 38°39' W 009°05'1 0.6
2015-Mar-19 07:33N 38°39' W 009°05'0 0.1
2015-Mar-19 06:33N 38°39' W 009°05'0 0.0
2015-Mar-18 21:33N 38°39' W 009°05'0 0.0
2015-Mar-18 20:33N 38°39' W 009°05'3 3.5
2015-Mar-18 19:33N 38°41' W 009°08'1 1.4
2015-Mar-18 18:33N 38°40' W 009°07'2 2.3
2015-Mar-18 17:33N 38°39' W 009°05'  
Track history (hours):
 
Tides and Currents Weather Stations Pressure Air Temp Water Temp Dewpoint Dewpoint Depression Visibility Wind Speed Wind Dir Waves Ship Positions

Fernando Pessoa

Last reported at 2015-Mar-28 17:33 UTC. Time now 2015-Mar-28 17:51 UTC.
Position N 38°40' W 009°06'.

Length 49 m.

MMSI: 263701470.

Date/timePositionNaut miles runAvg speedWind from/ knotsBaromVisibWave heightAir tempDewpointWater temp
2015-Mar-28 17:33N 38°40' W 009°06'0 0.5
2015-Mar-28 16:33N 38°40' W 009°07'1 0.5
2015-Mar-28 15:33N 38°40' W 009°06'0 0.0
2015-Mar-28 14:33N 38°40' W 009°06'0 0.0
2015-Mar-28 13:33N 38°40' W 009°06'1 1.2
2015-Mar-28 12:33N 38°39' W 009°05'0 0.0
2015-Mar-28 11:34N 38°39' W 009°05'3 3.0
2015-Mar-28 10:33N 38°41' W 009°08'0 0.3
2015-Mar-28 09:33N 38°41' W 009°08'0 0.1
2015-Mar-28 08:33N 38°41' W 009°08'3 3.0
2015-Mar-28 07:34N 38°39' W 009°05'1 0.7
2015-Mar-28 06:34N 38°39' W 009°06'1 0.6
2015-Mar-28 05:33N 38°39' W 009°05'0 0.0
2015-Mar-28 04:33N 38°39' W 009°05'0 0.0
2015-Mar-28 03:33N 38°39' W 009°05'0 0.0
2015-Mar-28 02:33N 38°39' W 009°05'0 0.0
2015-Mar-28 01:33N 38°39' W 009°05'0 0.0
2015-Mar-28 00:33N 38°39' W 009°05'4 3.9
2015-Mar-27 23:33N 38°42' W 009°08'1 1.4
2015-Mar-27 22:33N 38°41' W 009°07'0 0.3
2015-Mar-27 21:34N 38°41' W 009°08'3 2.7
2015-Mar-27 20:33N 38°39' W 009°05'0 0.0
2015-Mar-27 19:33N 38°39' W 009°05'0 0.0
2015-Mar-27 18:33N 38°39' W 009°05'1 0.9
2015-Mar-27 17:34N 38°39' W 009°06'1 0.8
2015-Mar-27 16:33N 38°39' W 009°05'0 0.0
2015-Mar-27 10:17N 38°39' W 009°05'4 5.5
2015-Mar-27 09:33N 38°42' W 009°08'0 0.0
2015-Mar-27 08:33N 38°42' W 009°08'2 2.3
2015-Mar-27 07:34N 38°40' W 009°07'2 0.2
2015-Mar-26 22:05N 38°39' W 009°05'0 0.0
2015-Mar-26 21:33N 38°39' W 009°05'0 0.0
2015-Mar-26 20:33N 38°39' W 009°05'4 3.6
2015-Mar-26 19:34N 38°42' W 009°08'1 0.6
2015-Mar-26 18:33N 38°42' W 009°08'3 2.6
2015-Mar-26 17:33N 38°40' W 009°07'1 1.5
2015-Mar-26 16:33N 38°39' W 009°05'1 0.7
2015-Mar-26 15:33N 38°40' W 009°06'1 1.1
2015-Mar-26 14:32N 38°39' W 009°05'0 0.0
2015-Mar-26 13:33N 38°39' W 009°05'0 0.0
2015-Mar-26 12:33N 38°39' W 009°05'0 0.0
2015-Mar-26 11:33N 38°39' W 009°05'2 1.6
2015-Mar-26 10:33N 38°40' W 009°07'0 0.3
2015-Mar-26 09:33N 38°40' W 009°06'1 0.7
2015-Mar-26 08:34N 38°40' W 009°07'2 2.0
2015-Mar-26 07:33N 38°39' W 009°05'0 0.0
2015-Mar-26 06:33N 38°39' W 009°05'0 0.0
2015-Mar-26 05:33N 38°39' W 009°05'0 0.0
2015-Mar-26 04:34N 38°39' W 009°05'0 0.0
2015-Mar-26 03:34N 38°39' W 009°05'0 0.0
2015-Mar-26 02:34N 38°39' W 009°05'0 0.0
2015-Mar-26 01:34N 38°39' W 009°05'0 0.0
2015-Mar-26 00:34N 38°39' W 009°05'4 3.8
2015-Mar-25 23:33N 38°42' W 009°08'1 1.1
2015-Mar-25 22:34N 38°41' W 009°08'0 0.3
2015-Mar-25 21:33N 38°41' W 009°08'3 2.8
2015-Mar-25 20:33N 38°39' W 009°05'0 0.5
2015-Mar-25 19:33N 38°39' W 009°05'1 0.5
2015-Mar-25 18:33N 38°39' W 009°05'1 1.1
2015-Mar-25 17:33N 38°40' W 009°06'1 1.0
2015-Mar-25 16:32N 38°39' W 009°05'0 0.0
2015-Mar-25 11:12N 38°39' W 009°05'0 0.1
2015-Mar-25 10:33N 38°39' W 009°05'0 0.1
2015-Mar-25 09:33N 38°39' W 009°05'0 0.4
2015-Mar-25 08:34N 38°39' W 009°05'0 0.4
2015-Mar-25 07:33N 38°39' W 009°05'0 0.0
2015-Mar-25 06:33N 38°39' W 009°05'0 0.0
2015-Mar-25 05:33N 38°39' W 009°05'0 0.0
2015-Mar-25 04:33N 38°39' W 009°05'0 0.0
2015-Mar-25 03:33N 38°39' W 009°05'0 0.0
2015-Mar-25 02:33N 38°39' W 009°05'0 0.0
2015-Mar-25 01:33N 38°39' W 009°05'0 0.0
2015-Mar-25 00:33N 38°39' W 009°05'0 0.0
2015-Mar-24 23:33N 38°39' W 009°05'0 0.0
2015-Mar-24 22:33N 38°39' W 009°05'0 0.0
2015-Mar-24 21:33N 38°39' W 009°05'3 2.6
2015-Mar-24 20:33N 38°41' W 009°07'2 1.7
2015-Mar-24 19:34N 38°39' W 009°06'3 3.1
2015-Mar-24 18:33N 38°42' W 009°08'0 0.2
2015-Mar-24 17:33N 38°42' W 009°08'2 2.0
2015-Mar-24 16:33N 38°40' W 009°07'2 2.4
2015-Mar-24 15:33N 38°39' W 009°05'1 1.2
2015-Mar-24 14:33N 38°40' W 009°06'0 0.0
2015-Mar-24 13:33N 38°40' W 009°06'1 1.0
2015-Mar-24 12:33N 38°39' W 009°05'0 0.0
2015-Mar-24 11:33N 38°39' W 009°05'3 2.7
2015-Mar-24 10:33N 38°41' W 009°08'3 2.8
2015-Mar-24 09:33N 38°39' W 009°05'2 1.8
2015-Mar-24 08:33N 38°40' W 009°07'3 2.5
2015-Mar-24 07:34N 38°42' W 009°08'0 0.2
2015-Mar-24 06:33N 38°42' W 009°08'0 0.3
2015-Mar-24 05:33N 38°42' W 009°08'4 3.9
2015-Mar-24 04:33N 38°39' W 009°05'0 0.0
2015-Mar-24 03:33N 38°39' W 009°05'0 0.0
2015-Mar-24 02:33N 38°39' W 009°05'0 0.4
2015-Mar-24 01:33N 38°39' W 009°05'0 0.0
2015-Mar-24 00:33N 38°39' W 009°05'0 0.0
2015-Mar-23 23:34N 38°39' W 009°05'1 1.4
2015-Mar-23 22:33N 38°40' W 009°07'0 0.1
2015-Mar-23 21:33N 38°40' W 009°07'2 1.7
2015-Mar-23 20:32N 38°39' W 009°05'0 0.0
2015-Mar-23 19:33N 38°39' W 009°05'1 1.2
2015-Mar-23 18:34N 38°40' W 009°06'3 2.8
2015-Mar-23 17:33N 38°42' W 009°08'4 3.7
2015-Mar-23 16:33N 38°39' W 009°05'0 0.0
2015-Mar-23 12:33N 38°39' W 009°05'0 0.0
2015-Mar-23 11:33N 38°39' W 009°05'0 0.0
2015-Mar-23 10:33N 38°39' W 009°05'4 4.0
2015-Mar-23 09:33N 38°42' W 009°08'0 0.0
2015-Mar-23 08:34N 38°42' W 009°08'2 2.4
2015-Mar-23 07:33N 38°40' W 009°07'  
2015-Mar-20 20:11N 38°39' W 009°05'4 6.3
2015-Mar-20 19:33N 38°42' W 009°08'0 0.1
2015-Mar-20 18:33N 38°42' W 009°08'2 2.5
2015-Mar-20 17:33N 38°40' W 009°07'2 1.7
2015-Mar-20 16:33N 38°39' W 009°05'1 1.0
2015-Mar-20 15:33N 38°40' W 009°06'1 1.3
2015-Mar-20 14:33N 38°39' W 009°05'0 0.0
2015-Mar-20 13:33N 38°39' W 009°05'0 0.0
2015-Mar-20 12:34N 38°39' W 009°05'0 0.0
2015-Mar-20 11:32N 38°39' W 009°05'0 0.0
2015-Mar-20 10:33N 38°39' W 009°05'1 1.5
2015-Mar-20 09:34N 38°40' W 009°06'1 0.6
2015-Mar-20 08:33N 38°40' W 009°07'2 2.0
2015-Mar-20 07:34N 38°39' W 009°05'0 0.0
2015-Mar-20 06:34N 38°39' W 009°05'0 0.0
2015-Mar-20 05:33N 38°39' W 009°05'0 0.0
2015-Mar-20 04:33N 38°39' W 009°05'0 0.0
2015-Mar-20 03:33N 38°39' W 009°05'0 0.0
2015-Mar-20 02:34N 38°39' W 009°05'0 0.0
2015-Mar-20 01:33N 38°39' W 009°05'0 0.0
2015-Mar-20 00:33N 38°39' W 009°05'4 3.8
2015-Mar-19 23:34N 38°42' W 009°08'1 0.9
2015-Mar-19 22:33N 38°41' W 009°08'0 0.1
2015-Mar-19 21:33N 38°41' W 009°08'3 3.0
2015-Mar-19 20:33N 38°39' W 009°05'0 0.4
2015-Mar-19 19:33N 38°39' W 009°05'0 0.3
2015-Mar-19 18:33N 38°39' W 009°05'2 1.7
2015-Mar-19 17:33N 38°40' W 009°07'2 1.6
2015-Mar-19 16:33N 38°39' W 009°05'0 0.0
2015-Mar-19 09:33N 38°39' W 009°05'0 0.4
2015-Mar-19 08:33N 38°39' W 009°05'1 0.6
2015-Mar-19 07:33N 38°39' W 009°05'0 0.1
2015-Mar-19 06:33N 38°39' W 009°05'0 0.0
2015-Mar-18 21:33N 38°39' W 009°05'0 0.0
2015-Mar-18 20:33N 38°39' W 009°05'3 3.5
2015-Mar-18 19:33N 38°41' W 009°08'1 1.4
2015-Mar-18 18:33N 38°40' W 009°07'2 2.3
2015-Mar-18 17:33N 38°39' W 009°05'  

Dump ship's entire track history